createdAt,value
2024-03-28T00:00:28.679Z,95467.77
2024-03-28T00:03:16.510Z,95457.43
2024-03-28T00:05:55.998Z,95455.01
2024-03-28T00:08:25.477Z,95455.66
2024-03-28T00:10:54.353Z,95457.20
2024-03-28T00:13:22.839Z,95451.85
2024-03-28T00:16:00.426Z,95451.48
2024-03-28T00:18:29.941Z,95451.58
2024-03-28T00:21:03.113Z,95451.63
2024-03-28T00:23:30.794Z,95451.40
2024-03-28T00:25:59.671Z,95442.67
2024-03-28T00:28:27.734Z,95432.73
2024-03-28T00:30:55.387Z,95429.30
2024-03-28T00:33:23.030Z,95427.40
2024-03-28T00:35:51.142Z,95421.23
2024-03-28T00:38:18.937Z,95419.95
2024-03-28T00:40:56.464Z,95413.97
2024-03-28T00:43:24.382Z,95411.45
2024-03-28T00:45:52.016Z,95410.41
2024-03-28T00:48:20.405Z,95408.39
2024-03-28T00:51:00.090Z,95398.61
2024-03-28T00:53:28.650Z,95394.14
2024-03-28T00:55:58.817Z,95390.70
2024-03-28T00:58:27.423Z,95393.76
2024-03-28T01:00:55.140Z,95387.94
2024-03-28T01:03:23.069Z,95391.23
2024-03-28T01:05:58.511Z,95392.16
2024-03-28T01:08:26.477Z,95389.66
2024-03-28T01:10:55.496Z,95385.39
2024-03-28T01:13:23.347Z,95390.77
2024-03-28T01:15:50.927Z,95390.41
2024-03-28T01:18:18.507Z,95390.14
2024-03-28T01:20:46.162Z,95391.83
2024-03-28T01:23:13.842Z,95391.73
2024-03-28T01:25:41.497Z,95386.03
2024-03-28T01:28:11.003Z,95386.06
2024-03-28T01:30:40.539Z,95384.27
2024-03-28T01:33:08.159Z,95388.75
2024-03-28T01:35:37.505Z,95383.91
2024-03-28T01:38:05.259Z,95386.77
2024-03-28T01:40:32.931Z,95384.35
2024-03-28T01:43:06.338Z,95380.60
2024-03-28T01:45:34.964Z,95379.55
2024-03-28T01:48:03.302Z,95380.09
2024-03-28T01:50:31.392Z,95386.66
2024-03-28T01:53:00.357Z,95391.78
2024-03-28T01:55:28.447Z,95390.17
2024-03-28T01:57:58.490Z,95389.21
2024-03-28T02:00:26.303Z,95392.55
2024-03-28T02:02:58.346Z,95391.20
2024-03-28T02:05:26.563Z,95395.88
2024-03-28T02:07:54.178Z,95392.89
2024-03-28T02:10:21.815Z,95391.15
2024-03-28T02:12:50.093Z,95393.25
2024-03-28T02:15:17.739Z,95388.83
2024-03-28T02:17:47.006Z,95383.83
2024-03-28T02:20:14.780Z,95371.54
2024-03-28T02:22:42.381Z,95364.85
2024-03-28T02:25:10.389Z,95360.27
2024-03-28T02:27:37.967Z,95354.28
2024-03-28T02:30:09.918Z,95361.20
2024-03-28T02:32:37.890Z,95368.52
2024-03-28T02:35:08.053Z,95369.05
2024-03-28T02:37:35.707Z,95366.20
2024-03-28T02:40:03.442Z,95366.87
2024-03-28T02:42:31.046Z,95365.98
2024-03-28T02:44:58.664Z,95357.19
2024-03-28T02:47:26.354Z,95345.38
2024-03-28T02:49:54.569Z,95336.71
2024-03-28T02:52:22.609Z,95327.16
2024-03-28T02:54:50.359Z,95327.13
2024-03-28T02:57:25.166Z,95329.30
2024-03-28T02:59:52.890Z,95330.07
2024-03-28T03:02:20.628Z,95329.13
2024-03-28T03:04:48.536Z,95331.88
2024-03-28T03:07:16.520Z,95323.83
2024-03-28T03:09:44.264Z,95323.27
2024-03-28T03:12:12.336Z,95321.52
2024-03-28T03:14:39.971Z,95324.20
2024-03-28T03:17:07.559Z,95322.89
2024-03-28T03:19:35.361Z,95315.19
2024-03-28T03:22:03.768Z,95313.77
2024-03-28T03:24:31.396Z,95306.13
2024-03-28T03:26:59.320Z,95306.92
2024-03-28T03:29:27.017Z,95306.55
2024-03-28T03:31:54.557Z,95306.14
2024-03-28T03:34:22.264Z,95304.55
2024-03-28T03:36:50.021Z,95306.88
2024-03-28T03:39:17.567Z,95301.69
2024-03-28T03:41:46.031Z,95307.15
2024-03-28T03:44:13.686Z,95304.95
2024-03-28T03:46:42.763Z,95306.45
2024-03-28T03:49:10.522Z,95306.45
2024-03-28T03:51:38.732Z,95304.77
2024-03-28T03:54:06.352Z,95307.50
2024-03-28T03:56:33.990Z,95302.02
2024-03-28T03:59:02.899Z,95298.50
2024-03-28T04:01:30.852Z,95293.69
2024-03-28T04:03:58.495Z,95288.08
2024-03-28T04:06:26.199Z,95285.09
2024-03-28T04:08:53.962Z,95289.95
2024-03-28T04:11:21.580Z,95292.22
2024-03-28T04:13:49.170Z,95288.17
2024-03-28T04:16:16.851Z,95280.04
2024-03-28T04:18:44.446Z,95273.02
2024-03-28T04:21:12.186Z,95264.44
2024-03-28T04:23:39.932Z,95256.96
2024-03-28T04:26:07.493Z,95252.58
2024-03-28T04:28:35.066Z,95257.01
2024-03-28T04:31:02.931Z,95261.90
2024-03-28T04:33:30.493Z,95265.16
2024-03-28T04:35:58.232Z,95259.96
2024-03-28T04:38:25.809Z,95252.76
2024-03-28T04:40:53.509Z,95249.79
2024-03-28T04:43:21.219Z,95242.99
2024-03-28T04:45:48.919Z,95242.45
2024-03-28T04:48:16.698Z,95237.75
2024-03-28T04:50:44.304Z,95240.25
2024-03-28T04:53:12.082Z,95243.88
2024-03-28T04:55:41.116Z,95246.63
2024-03-28T04:58:08.778Z,95248.98
2024-03-28T05:00:37.411Z,95247.25
2024-03-28T05:03:05.747Z,95245.02
2024-03-28T05:05:33.537Z,95248.92
2024-03-28T05:08:01.178Z,95248.11
2024-03-28T05:10:29.145Z,95249.88
2024-03-28T05:12:57.091Z,95256.13
2024-03-28T05:15:24.956Z,95268.27
2024-03-28T05:17:52.571Z,95277.67
2024-03-28T05:20:20.404Z,95281.17
2024-03-28T05:22:47.979Z,95288.59
2024-03-28T05:25:15.728Z,95292.02
2024-03-28T05:27:43.343Z,95291.91
2024-03-28T05:30:11.304Z,95291.24
2024-03-28T05:32:38.895Z,95288.33
2024-03-28T05:35:06.691Z,95286.61
2024-03-28T05:37:34.261Z,95281.02
2024-03-28T05:40:01.969Z,95280.90
2024-03-28T05:42:29.615Z,95282.56
2024-03-28T05:44:57.303Z,95287.02
2024-03-28T05:47:24.951Z,95290.62
2024-03-28T05:49:52.586Z,95293.96
2024-03-28T05:52:20.176Z,95293.07
2024-03-28T05:54:47.795Z,95287.52
2024-03-28T05:57:15.432Z,95271.63
2024-03-28T05:59:43.031Z,95278.73
2024-03-28T06:02:10.624Z,95281.85
2024-03-28T06:04:38.329Z,95286.97
2024-03-28T06:07:05.937Z,95297.20
2024-03-28T06:09:33.550Z,95302.33
2024-03-28T06:12:01.743Z,95307.70
2024-03-28T06:14:29.318Z,95306.04
2024-03-28T06:16:56.930Z,95309.46
2024-03-28T06:19:24.501Z,95310.02
2024-03-28T06:21:52.093Z,95307.05
2024-03-28T06:24:20.026Z,95300.88
2024-03-28T06:26:50.669Z,95294.17
2024-03-28T06:29:18.254Z,95287.66
2024-03-28T06:31:46.002Z,95286.11
2024-03-28T06:34:13.617Z,95288.36
2024-03-28T06:36:41.204Z,95289.19
2024-03-28T06:39:08.930Z,95288.65
2024-03-28T06:41:36.528Z,95302.84
2024-03-28T06:44:04.181Z,95309.27
2024-03-28T06:46:32.056Z,95313.37
2024-03-28T06:48:59.649Z,95310.84
2024-03-28T06:51:27.282Z,95304.33
2024-03-28T06:53:54.992Z,95302.67
2024-03-28T06:56:22.636Z,95308.23
2024-03-28T06:58:52.105Z,95315.84
2024-03-28T07:01:19.947Z,95324.79
2024-03-28T07:03:47.544Z,95322.44
2024-03-28T07:06:19.339Z,95323.55
2024-03-28T07:08:47.296Z,95331.79
2024-03-28T07:11:15.017Z,95332.79
2024-03-28T07:13:42.626Z,95324.85
2024-03-28T07:16:10.456Z,95324.63
2024-03-28T07:18:38.077Z,95336.48
2024-03-28T07:21:05.743Z,95339.86
2024-03-28T07:23:33.423Z,95340.89
2024-03-28T07:26:01.094Z,95339.84
2024-03-28T07:28:28.707Z,95335.30
2024-03-28T07:30:56.312Z,95336.52
2024-03-28T07:33:23.842Z,95343.55
2024-03-28T07:35:51.556Z,95343.35
2024-03-28T07:38:19.553Z,95337.30
2024-03-28T07:40:51.861Z,95335.23
2024-03-28T07:43:19.483Z,95342.21
2024-03-28T07:45:47.101Z,95342.44
2024-03-28T07:48:15.062Z,95344.48
2024-03-28T07:50:42.718Z,95345.08
2024-03-28T07:53:10.406Z,95347.05
2024-03-28T07:55:38.006Z,95343.14
2024-03-28T07:58:05.615Z,95346.46
2024-03-28T08:00:33.459Z,95346.38
2024-03-28T08:03:01.076Z,95349.66
2024-03-28T08:05:28.778Z,95357.02
2024-03-28T08:07:56.425Z,95357.58
2024-03-28T08:10:24.234Z,95354.46
2024-03-28T08:12:51.831Z,95351.60
2024-03-28T08:15:19.440Z,95350.49
2024-03-28T08:17:47.208Z,95344.98
2024-03-28T08:20:14.968Z,95346.76
2024-03-28T08:22:43.084Z,95349.27
2024-03-28T08:25:10.742Z,95349.88
2024-03-28T08:27:39.795Z,95347.58
2024-03-28T08:30:08.121Z,95345.52
2024-03-28T08:32:35.859Z,95354.45
2024-03-28T08:35:03.856Z,95348.77
2024-03-28T08:37:31.520Z,95353.23
2024-03-28T08:39:59.397Z,95346.46
2024-03-28T08:42:27.168Z,95345.66
2024-03-28T08:44:54.776Z,95354.36
2024-03-28T08:47:22.548Z,95351.98
2024-03-28T08:49:50.280Z,95360.54
2024-03-28T08:52:18.338Z,95366.95
2024-03-28T08:54:46.052Z,95363.04
2024-03-28T08:57:13.678Z,95362.33
2024-03-28T08:59:41.298Z,95374.42
2024-03-28T09:02:08.932Z,95369.34
2024-03-28T09:04:36.615Z,95370.81
2024-03-28T09:07:04.426Z,95368.08
2024-03-28T09:09:32.088Z,95376.80
2024-03-28T09:11:59.795Z,95376.52
2024-03-28T09:14:27.406Z,95372.66
2024-03-28T09:16:55.193Z,95386.63
2024-03-28T09:19:22.802Z,95381.79
2024-03-28T09:21:50.728Z,95382.15
2024-03-28T09:24:18.906Z,95397.18
2024-03-28T09:26:46.642Z,95395.47
2024-03-28T09:29:14.346Z,95403.39
2024-03-28T09:31:41.909Z,95418.92
2024-03-28T09:34:09.490Z,95408.30
2024-03-28T09:36:37.523Z,95415.39
2024-03-28T09:39:05.251Z,95417.02
2024-03-28T09:41:34.550Z,95427.74
2024-03-28T09:44:06.628Z,95421.66
2024-03-28T09:46:34.759Z,95430.48
2024-03-28T09:49:03.726Z,95440.77
2024-03-28T09:51:31.394Z,95447.02
2024-03-28T09:53:59.151Z,95452.99
2024-03-28T09:56:26.698Z,95468.13
2024-03-28T09:58:55.615Z,95472.05
2024-03-28T10:01:25.018Z,95479.08
2024-03-28T10:04:06.405Z,95482.21
2024-03-28T10:06:34.060Z,95482.46
2024-03-28T10:09:03.046Z,95484.67
2024-03-28T10:11:31.080Z,95494.54
2024-03-28T10:13:58.849Z,95501.72
2024-03-28T10:16:26.651Z,95507.37
2024-03-28T10:18:57.587Z,95517.69
2024-03-28T10:21:25.371Z,95534.29
2024-03-28T10:23:53.028Z,95543.48
2024-03-28T10:26:20.791Z,95540.73
2024-03-28T10:28:48.636Z,95530.25
2024-03-28T10:31:26.406Z,95521.11
2024-03-28T10:33:54.569Z,95513.05
2024-03-28T10:36:25.285Z,95525.34
2024-03-28T10:39:03.219Z,95530.35
2024-03-28T10:41:31.104Z,95539.67
2024-03-28T10:44:01.639Z,95540.11
2024-03-28T10:46:29.938Z,95545.45
2024-03-28T10:48:58.280Z,95558.86
2024-03-28T10:51:32.954Z,95557.03
2024-03-28T10:54:06.576Z,95561.41
2024-03-28T10:56:40.376Z,95560.30
2024-03-28T10:59:09.839Z,95565.10
2024-03-28T11:01:38.406Z,95568.46
2024-03-28T11:04:06.543Z,95569.70
2024-03-28T11:06:34.401Z,95576.54
2024-03-28T11:09:02.587Z,95581.30
2024-03-28T11:11:31.784Z,95579.17
2024-03-28T11:13:59.501Z,95573.96
2024-03-28T11:16:27.236Z,95573.08
2024-03-28T11:19:01.072Z,95575.15
2024-03-28T11:21:30.429Z,95579.77
2024-03-28T11:23:59.364Z,95576.65
2024-03-28T11:26:27.747Z,95574.95
2024-03-28T11:29:06.407Z,95575.70
2024-03-28T11:31:35.847Z,95578.66
2024-03-28T11:34:06.578Z,95585.72
2024-03-28T11:36:34.699Z,95594.88
2024-03-28T11:39:02.330Z,95593.81
2024-03-28T11:41:30.708Z,95587.58
2024-03-28T11:43:58.440Z,95594.20
2024-03-28T11:46:26.021Z,95595.30
2024-03-28T11:49:07.731Z,95591.23
2024-03-28T11:51:43.993Z,95594.43
2024-03-28T11:54:12.556Z,95595.91
2024-03-28T11:56:44.102Z,95592.14
2024-03-28T11:59:21.737Z,95586.11
2024-03-28T12:01:50.233Z,95585.97
2024-03-28T12:04:25.041Z,95595.80
2024-03-28T12:06:54.715Z,95598.25
2024-03-28T12:09:22.590Z,95609.21
2024-03-28T12:11:50.266Z,95609.05
2024-03-28T12:14:23.928Z,95615.05
2024-03-28T12:16:51.645Z,95628.59
2024-03-28T12:19:25.821Z,95625.48
2024-03-28T12:21:53.441Z,95633.06
2024-03-28T12:24:21.218Z,95635.32
2024-03-28T12:26:48.836Z,95628.43
2024-03-28T12:29:24.974Z,95633.72
2024-03-28T12:32:06.619Z,95644.64
2024-03-28T12:34:34.385Z,95651.23
2024-03-28T12:37:02.165Z,95653.32
2024-03-28T12:39:29.795Z,95650.44
2024-03-28T12:41:57.516Z,95649.47
2024-03-28T12:44:28.039Z,95640.70
2024-03-28T12:46:55.611Z,95644.20
2024-03-28T12:49:23.688Z,95639.77
2024-03-28T12:51:51.290Z,95633.91
2024-03-28T12:54:18.903Z,95641.15
2024-03-28T12:56:46.689Z,95644.90
2024-03-28T12:59:14.456Z,95650.23
2024-03-28T13:01:42.227Z,95648.14
2024-03-28T13:04:09.890Z,95649.59
2024-03-28T13:06:41.830Z,95655.47
2024-03-28T13:09:12.325Z,95653.76
2024-03-28T13:11:39.902Z,95663.08
2024-03-28T13:14:07.455Z,95664.67
2024-03-28T13:16:35.063Z,95667.45
2024-03-28T13:19:02.654Z,95673.17
2024-03-28T13:21:30.274Z,95678.07
2024-03-28T13:23:57.888Z,95680.85
2024-03-28T13:26:44.061Z,95683.81
2024-03-28T13:29:13.025Z,95689.21
2024-03-28T13:31:40.678Z,95679.89
2024-03-28T13:34:08.367Z,95688.73
2024-03-28T13:36:36.324Z,95697.34
2024-03-28T13:39:04.230Z,95701.82
2024-03-28T13:41:32.205Z,95707.90
2024-03-28T13:43:59.853Z,95705.73
2024-03-28T13:46:27.744Z,95725.04
2024-03-28T13:48:55.457Z,95732.23
2024-03-28T13:51:23.158Z,95730.96
2024-03-28T13:53:50.740Z,95726.90
2024-03-28T13:56:18.413Z,95729.86
2024-03-28T13:58:46.216Z,95727.23
2024-03-28T14:01:14.378Z,95725.95
2024-03-28T14:03:42.005Z,95726.80
2024-03-28T14:06:09.659Z,95728.23
2024-03-28T14:08:37.328Z,95727.17
2024-03-28T14:11:05.019Z,95721.17
2024-03-28T14:13:32.631Z,95722.48
2024-03-28T14:16:00.733Z,95717.02
2024-03-28T14:18:28.390Z,95715.13
2024-03-28T14:20:55.978Z,95717.46
2024-03-28T14:23:23.953Z,95717.14
2024-03-28T14:26:00.161Z,95712.33
2024-03-28T14:28:28.468Z,95714.71
2024-03-28T14:30:56.392Z,95711.64
2024-03-28T14:33:23.987Z,95719.55
2024-03-28T14:36:06.302Z,95725.44
2024-03-28T14:38:34.589Z,95724.10
2024-03-28T14:41:07.362Z,95721.92
2024-03-28T14:43:36.687Z,95722.46
2024-03-28T14:46:09.188Z,95725.79
2024-03-28T14:48:37.682Z,95731.65
2024-03-28T14:51:09.911Z,95737.78
2024-03-28T14:53:38.943Z,95742.30
2024-03-28T14:56:07.082Z,95740.48
2024-03-28T14:58:42.489Z,95744.70
2024-03-28T15:01:12.651Z,95744.48
2024-03-28T15:03:40.423Z,95743.04
2024-03-28T15:06:08.312Z,95747.08
2024-03-28T15:08:35.976Z,95750.04
2024-03-28T15:11:05.065Z,95749.03
2024-03-28T15:13:32.882Z,95753.11
2024-03-28T15:16:02.203Z,95752.27
2024-03-28T15:18:29.901Z,95746.04
2024-03-28T15:20:57.547Z,95758.52
2024-03-28T15:23:25.998Z,95769.73
2024-03-28T15:25:53.623Z,95770.16
2024-03-28T15:28:21.253Z,95769.48
2024-03-28T15:30:49.324Z,95772.58
2024-03-28T15:33:16.878Z,95776.33
2024-03-28T15:35:44.506Z,95780.98
2024-03-28T15:38:12.134Z,95786.78
2024-03-28T15:40:39.835Z,95791.05
2024-03-28T15:43:07.593Z,95797.55
2024-03-28T15:45:35.573Z,95794.39
2024-03-28T15:48:03.547Z,95794.71
2024-03-28T15:50:31.192Z,95797.98
2024-03-28T15:52:58.964Z,95803.57
2024-03-28T15:55:26.720Z,95805.02
2024-03-28T15:57:54.329Z,95804.54
2024-03-28T16:00:22.097Z,95806.63
2024-03-28T16:02:49.803Z,95814.67
2024-03-28T16:05:17.600Z,95813.52
2024-03-28T16:07:45.550Z,95819.32
2024-03-28T16:10:14.672Z,95814.42
2024-03-28T16:12:43.774Z,95827.49
2024-03-28T16:15:11.383Z,95832.46
2024-03-28T16:17:39.111Z,95835.52
2024-03-28T16:20:07.370Z,95841.58
2024-03-28T16:22:34.994Z,95843.60
2024-03-28T16:25:02.774Z,95847.58
2024-03-28T16:27:30.684Z,95851.77
2024-03-28T16:29:58.299Z,95857.81
2024-03-28T16:32:25.927Z,95859.77
2024-03-28T16:34:53.588Z,95865.08
2024-03-28T16:37:21.175Z,95865.70
2024-03-28T16:39:48.849Z,95867.29
2024-03-28T16:42:16.483Z,95869.96
2024-03-28T16:44:44.163Z,95869.61
2024-03-28T16:47:12.028Z,95872.83
2024-03-28T16:49:39.611Z,95873.17
2024-03-28T16:52:07.815Z,95872.86
2024-03-28T16:54:35.431Z,95873.83
2024-03-28T16:57:03.107Z,95876.83
2024-03-28T16:59:30.788Z,95881.63
2024-03-28T17:01:58.355Z,95886.12
2024-03-28T17:04:27.379Z,95888.46
2024-03-28T17:06:56.506Z,95893.05
2024-03-28T17:09:24.118Z,95887.20
2024-03-28T17:11:52.666Z,95890.70
2024-03-28T17:14:20.603Z,95889.54
2024-03-28T17:16:48.240Z,95888.80
2024-03-28T17:19:18.224Z,95887.82
2024-03-28T17:21:47.666Z,95888.23
2024-03-28T17:24:15.247Z,95891.00
2024-03-28T17:26:42.948Z,95893.06
2024-03-28T17:29:10.703Z,95890.33
2024-03-28T17:31:38.300Z,95885.80
2024-03-28T17:34:06.004Z,95884.16
2024-03-28T17:36:33.707Z,95883.08
2024-03-28T17:39:01.379Z,95884.67
2024-03-28T17:41:29.295Z,95885.09
2024-03-28T17:43:57.009Z,95880.93
2024-03-28T17:46:25.749Z,95881.77
2024-03-28T17:48:54.710Z,95886.66
2024-03-28T17:51:22.470Z,95885.60
2024-03-28T17:53:50.705Z,95886.91
2024-03-28T17:56:18.356Z,95889.48
2024-03-28T17:58:46.273Z,95889.09
2024-03-28T18:01:13.874Z,95890.23
2024-03-28T18:03:41.793Z,95889.06
2024-03-28T18:06:09.419Z,95890.63
2024-03-28T18:08:37.014Z,95897.20
2024-03-28T18:11:04.706Z,95897.11
2024-03-28T18:13:32.433Z,95896.89
2024-03-28T18:16:04.108Z,95898.49
2024-03-28T18:18:31.820Z,95899.66
2024-03-28T18:21:03.215Z,95901.13
2024-03-28T18:23:30.914Z,95903.77
2024-03-28T18:26:00.906Z,95907.99
2024-03-28T18:28:28.757Z,95904.00
2024-03-28T18:30:56.384Z,95905.33
2024-03-28T18:33:24.152Z,95905.79
2024-03-28T18:36:02.012Z,95910.91
2024-03-28T18:38:29.962Z,95916.09
2024-03-28T18:40:57.644Z,95914.52
2024-03-28T18:43:25.666Z,95913.48
2024-03-28T18:45:58.656Z,95915.02
2024-03-28T18:48:26.814Z,95921.70
2024-03-28T18:50:55.730Z,95923.35
2024-03-28T18:53:23.465Z,95921.48
2024-03-28T18:56:02.035Z,95922.46
2024-03-28T18:58:29.726Z,95921.33
2024-03-28T19:00:57.819Z,95920.20
2024-03-28T19:03:25.607Z,95920.50
2024-03-28T19:05:53.425Z,95920.58
2024-03-28T19:08:21.120Z,95919.30
2024-03-28T19:10:49.777Z,95917.70
2024-03-28T19:13:17.384Z,95918.90
2024-03-28T19:15:47.582Z,95918.77
2024-03-28T19:18:16.037Z,95922.15
2024-03-28T19:20:46.799Z,95924.88
2024-03-28T19:23:16.580Z,95925.34
2024-03-28T19:25:46.631Z,95927.59
2024-03-28T19:28:14.976Z,95930.02
2024-03-28T19:30:45.170Z,95931.04
2024-03-28T19:33:13.349Z,95930.83
2024-03-28T19:35:42.381Z,95932.23
2024-03-28T19:38:12.381Z,95930.83
2024-03-28T19:40:40.109Z,95932.11
2024-03-28T19:43:07.852Z,95930.28
2024-03-28T19:45:37.912Z,95927.66
2024-03-28T19:48:07.489Z,95926.86
2024-03-28T19:50:35.746Z,95926.90
2024-03-28T19:53:04.613Z,95923.05
2024-03-28T19:55:33.023Z,95923.16
2024-03-28T19:58:01.003Z,95924.48
2024-03-28T20:00:29.222Z,95928.52
2024-03-28T20:02:56.952Z,95929.41
2024-03-28T20:05:25.918Z,95926.92
2024-03-28T20:07:58.742Z,95926.04
2024-03-28T20:10:26.681Z,95921.31
2024-03-28T20:12:54.285Z,95922.02
2024-03-28T20:15:24.249Z,95920.33
2024-03-28T20:17:52.008Z,95917.06
2024-03-28T20:20:19.636Z,95920.43
2024-03-28T20:22:47.580Z,95923.70
2024-03-28T20:25:15.397Z,95920.04
2024-03-28T20:27:43.379Z,95917.92
2024-03-28T20:30:11.682Z,95914.45
2024-03-28T20:32:39.411Z,95916.19
2024-03-28T20:35:07.352Z,95916.48
2024-03-28T20:37:37.846Z,95920.17
2024-03-28T20:40:06.286Z,95922.70
2024-03-28T20:42:33.948Z,95934.17
2024-03-28T20:45:01.634Z,95952.27
2024-03-28T20:47:29.469Z,95974.03
2024-03-28T20:49:57.373Z,95983.52
2024-03-28T20:52:25.075Z,95996.23
2024-03-28T21:18:09.306Z,96023.76
2024-03-28T21:20:36.992Z,96030.70
2024-03-28T21:23:04.790Z,96041.57
2024-03-28T21:25:32.675Z,96050.71
2024-03-28T21:28:00.449Z,96062.58
2024-03-28T21:30:30.213Z,96061.55
2024-03-28T21:32:57.989Z,96061.63
2024-03-28T21:35:29.164Z,96054.80
2024-03-28T21:37:56.787Z,96045.31
2024-03-28T21:40:24.612Z,96044.89
2024-03-28T21:42:52.311Z,96051.23
2024-03-28T21:45:19.994Z,96062.86
2024-03-28T21:47:47.699Z,96067.58
2024-03-28T21:50:15.373Z,96076.66
2024-03-28T21:52:43.058Z,96077.73
2024-03-28T21:55:11.399Z,96083.89
2024-03-28T21:57:39.114Z,96087.31
2024-03-28T22:00:07.762Z,96083.88
2024-03-28T22:02:36.038Z,96088.79
2024-03-28T22:05:03.870Z,96099.89
2024-03-28T22:07:31.552Z,96106.89
2024-03-28T22:10:00.074Z,96116.59
2024-03-28T22:12:27.850Z,96126.17
2024-03-28T22:14:55.412Z,96137.55
2024-03-28T22:17:23.175Z,96152.39
2024-03-28T22:19:50.762Z,96160.56
2024-03-28T22:22:18.332Z,96183.15
2024-03-28T22:24:46.512Z,96183.84
2024-03-28T22:27:14.344Z,96192.77
2024-03-28T22:29:41.938Z,96195.77
2024-03-28T22:32:09.634Z,96203.40
2024-03-28T22:34:37.474Z,96219.41
2024-03-28T22:37:05.126Z,96225.03
2024-03-28T22:39:33.112Z,96230.86
2024-03-28T22:42:01.020Z,96236.69
2024-03-28T22:44:28.608Z,96237.02
2024-03-28T22:46:56.336Z,96249.71
2024-03-28T22:49:24.156Z,96255.60
2024-03-28T22:51:52.657Z,96258.80
2024-03-28T22:54:20.572Z,96258.42
2024-03-28T22:56:48.323Z,96261.52
2024-03-28T22:59:15.882Z,96271.89
2024-03-28T23:01:43.603Z,96277.23
2024-03-28T23:04:11.429Z,96288.02
2024-03-28T23:06:39.055Z,96294.86
2024-03-28T23:09:06.672Z,96301.20
2024-03-28T23:11:34.261Z,96309.77
2024-03-28T23:14:01.925Z,96318.44
2024-03-28T23:16:29.727Z,96328.38
2024-03-28T23:18:57.327Z,96330.32
2024-03-28T23:21:25.286Z,96336.66
2024-03-28T23:23:53.019Z,96340.06
2024-03-28T23:26:20.669Z,96346.25
2024-03-28T23:28:48.892Z,96355.02
2024-03-28T23:31:16.493Z,96359.52
2024-03-28T23:33:44.088Z,96365.58
2024-03-28T23:36:11.727Z,96370.90
2024-03-28T23:38:39.684Z,96368.88
2024-03-28T23:41:07.357Z,96374.74
2024-03-28T23:43:34.984Z,96376.42
2024-03-28T23:46:02.730Z,96377.04
2024-03-28T23:48:30.369Z,96375.59
2024-03-28T23:50:58.146Z,96375.27
2024-03-28T23:53:25.988Z,96372.31
2024-03-28T23:55:53.697Z,96369.25
2024-03-28T23:58:21.285Z,96375.48
